createdAt,value
2017-01-17T00:00:44.998Z,0
2017-01-17T00:10:57.838Z,0
2017-01-17T00:21:10.843Z,0
2017-01-17T00:31:23.455Z,0
2017-01-17T00:41:36.295Z,0
2017-01-17T00:51:49.076Z,0
2017-01-17T01:02:01.806Z,0
2017-01-17T01:12:14.568Z,0
2017-01-17T01:22:27.296Z,0
2017-01-17T01:32:40.016Z,0
2017-01-17T01:42:52.746Z,0
2017-01-17T01:53:05.509Z,0
2017-01-17T02:03:18.286Z,0
2017-01-17T02:13:31.091Z,0
2017-01-17T02:23:43.911Z,0
2017-01-17T02:33:56.716Z,0
2017-01-17T02:44:09.550Z,0
2017-01-17T02:54:22.335Z,0
2017-01-17T03:04:35.172Z,0
2017-01-17T03:14:47.994Z,0
2017-01-17T03:25:00.791Z,0
2017-01-17T03:35:13.687Z,0
2017-01-17T03:45:26.713Z,0
2017-01-17T03:55:39.790Z,0
2017-01-17T04:05:52.928Z,0
2017-01-17T04:16:06.095Z,0
2017-01-17T04:26:19.247Z,0
2017-01-17T04:36:32.464Z,0
2017-01-17T04:46:45.654Z,0
2017-01-17T04:56:58.833Z,0
2017-01-17T05:07:11.998Z,0
2017-01-17T05:17:25.154Z,0
2017-01-17T05:27:38.343Z,0
2017-01-17T05:37:51.471Z,0
2017-01-17T05:48:04.587Z,0
2017-01-17T05:58:17.638Z,0
2017-01-17T06:08:30.688Z,0
2017-01-17T06:18:43.637Z,0
2017-01-17T06:28:56.554Z,0
2017-01-17T06:39:09.516Z,0
2017-01-17T06:49:22.477Z,0
2017-01-17T06:59:35.605Z,0
2017-01-17T07:09:48.382Z,0
2017-01-17T07:20:01.168Z,0
2017-01-17T07:30:14.056Z,5
2017-01-17T07:40:26.876Z,15
2017-01-17T07:50:39.761Z,25
2017-01-17T08:00:52.638Z,30
2017-01-17T08:11:05.532Z,55
2017-01-17T08:21:18.383Z,70
2017-01-17T08:31:31.224Z,80
2017-01-17T08:41:43.981Z,95
2017-01-17T08:51:56.827Z,120
2017-01-17T09:02:09.597Z,130
2017-01-17T09:12:22.355Z,145
2017-01-17T09:22:35.155Z,165
2017-01-17T09:32:48.029Z,180
2017-01-17T09:43:00.618Z,190
2017-01-17T09:53:13.262Z,200
2017-01-17T10:03:25.760Z,195
2017-01-17T10:13:38.600Z,205
2017-01-17T10:23:50.916Z,240
2017-01-17T10:34:03.422Z,190
2017-01-17T10:44:15.929Z,185
2017-01-17T10:54:28.404Z,200
2017-01-17T11:04:40.780Z,190
2017-01-17T11:14:53.322Z,160
2017-01-17T11:25:05.851Z,210
2017-01-17T11:35:18.345Z,240
2017-01-17T11:45:30.933Z,215
2017-01-17T11:55:43.349Z,210
2017-01-17T12:05:55.781Z,225
2017-01-17T12:16:08.150Z,220
2017-01-17T12:26:20.575Z,210
2017-01-17T12:36:33.013Z,205
2017-01-17T12:46:45.555Z,215
2017-01-17T12:56:57.900Z,165
2017-01-17T13:07:10.326Z,160
2017-01-17T13:17:22.763Z,185
2017-01-17T13:27:35.249Z,265
2017-01-17T13:37:47.657Z,205
2017-01-17T13:48:00.045Z,195
2017-01-17T13:58:12.391Z,185
2017-01-17T14:08:24.752Z,175
2017-01-17T14:18:37.151Z,140
2017-01-17T14:28:49.643Z,105
2017-01-17T14:39:02.163Z,105
2017-01-17T14:49:14.624Z,85
2017-01-17T14:59:27.171Z,75
2017-01-17T15:09:39.760Z,65
2017-01-17T15:19:52.431Z,60
2017-01-17T15:30:04.934Z,45
2017-01-17T15:40:17.583Z,25
2017-01-17T15:50:30.236Z,10
2017-01-17T16:00:42.981Z,5
2017-01-17T16:10:55.483Z,0
2017-01-17T16:21:08.131Z,0
2017-01-17T16:31:20.882Z,0
2017-01-17T16:41:33.677Z,0
2017-01-17T16:51:46.529Z,0
2017-01-17T17:01:59.145Z,0
2017-01-17T17:12:11.890Z,0
2017-01-17T17:22:24.627Z,0
2017-01-17T17:32:37.405Z,0
2017-01-17T17:42:50.123Z,0
2017-01-17T17:53:02.910Z,0
2017-01-17T18:03:15.649Z,0
2017-01-17T18:13:28.371Z,0
2017-01-17T18:23:41.075Z,0
2017-01-17T18:33:53.891Z,0
2017-01-17T18:44:06.681Z,0
2017-01-17T18:54:19.473Z,0
2017-01-17T19:04:32.234Z,0
2017-01-17T19:14:45.051Z,0
2017-01-17T19:24:57.788Z,0
2017-01-17T19:35:10.536Z,0
2017-01-17T19:45:23.291Z,0
2017-01-17T19:55:36.051Z,0
2017-01-17T20:05:48.793Z,0
2017-01-17T20:16:01.518Z,0
2017-01-17T20:26:14.385Z,0
2017-01-17T20:56:52.831Z,0
2017-01-17T21:07:05.598Z,0
2017-01-17T21:17:18.328Z,0
2017-01-17T21:27:31.133Z,0
2017-01-17T21:37:43.842Z,0
2017-01-17T21:47:56.499Z,0
2017-01-17T21:58:09.198Z,0
2017-01-17T22:08:21.915Z,0
2017-01-17T22:18:34.675Z,0
2017-01-17T22:28:47.434Z,0
2017-01-17T22:39:00.248Z,0
2017-01-17T22:49:13.048Z,0
2017-01-17T22:59:25.929Z,0
2017-01-17T23:09:38.940Z,0
2017-01-17T23:19:51.917Z,0
2017-01-17T23:30:04.852Z,0
2017-01-17T23:40:17.870Z,0
2017-01-17T23:50:30.880Z,0
